アトランタ の空港の天気 - METARとTAF

ハーツフィールド・ジャクソン・アトランタ国際空港 ( KATL / ATL ) - アメリカ ジョージア州アトランタ
飛行場実況気象(Metar)
観測時間05/28 06:52 EDT (05/28 10:52 UTC)
風向・風速北西 4m/s
視程10km以上
天気現象
なし
気温16.1℃
湿度83%
気圧1013.3hPa
METARKATL 281052Z 32008KT 10SM CLR 16/13 A2995 RMK AO2 SLP133 T01610133
過去の天気等 Google飛行場航空写真 Wunderground天気予報

過去48時間のMETAR

飛行場予報(TAF)
発表時間: 5/28 05:49 EDT (5/28 09:49 UTC)
予報対象時間: 28日6時 EDT ~ 29日8時 EDT
風向・風速西北西 3m/s
視程10km以上
なし
28日19時 EDT から
風向・風速西北西 3m/s
視程10km以上
少しの雲 雲底高度 7620m
KATL 280949Z 2810/2912 30005KT P6SM SKC
FM282300 30005KT P6SM FEW250